sensor_id;sensor_type;location;lat;lon;timestamp;P1;durP1;ratioP1;P2;durP2;ratioP2
12088;SDS011;6107;49.078;8.578;2024-01-25T00:00:54;23.80;;;3.65;;
12088;SDS011;6107;49.078;8.578;2024-01-25T00:03:20;22.92;;;3.22;;
12088;SDS011;6107;49.078;8.578;2024-01-25T00:05:46;37.78;;;4.15;;
12088;SDS011;6107;49.078;8.578;2024-01-25T00:08:12;21.73;;;3.10;;
12088;SDS011;6107;49.078;8.578;2024-01-25T00:10:39;26.38;;;3.58;;
12088;SDS011;6107;49.078;8.578;2024-01-25T00:13:04;24.30;;;3.10;;
12088;SDS011;6107;49.078;8.578;2024-01-25T00:15:30;27.65;;;3.03;;
12088;SDS011;6107;49.078;8.578;2024-01-25T00:17:55;18.60;;;3.75;;
12088;SDS011;6107;49.078;8.578;2024-01-25T00:20:22;28.45;;;3.67;;
12088;SDS011;6107;49.078;8.578;2024-01-25T00:22:47;38.22;;;4.53;;
12088;SDS011;6107;49.078;8.578;2024-01-25T00:25:13;26.50;;;3.67;;
12088;SDS011;6107;49.078;8.578;2024-01-25T00:27:39;21.65;;;3.13;;
12088;SDS011;6107;49.078;8.578;2024-01-25T00:30:04;29.10;;;3.58;;
12088;SDS011;6107;49.078;8.578;2024-01-25T00:32:31;23.20;;;3.47;;
12088;SDS011;6107;49.078;8.578;2024-01-25T00:34:56;21.58;;;3.45;;
12088;SDS011;6107;49.078;8.578;2024-01-25T00:37:22;29.77;;;4.15;;
12088;SDS011;6107;49.078;8.578;2024-01-25T00:39:48;23.08;;;2.97;;
12088;SDS011;6107;49.078;8.578;2024-01-25T00:42:14;28.13;;;3.72;;
12088;SDS011;6107;49.078;8.578;2024-01-25T00:44:41;26.98;;;3.72;;
12088;SDS011;6107;49.078;8.578;2024-01-25T00:47:07;27.35;;;3.47;;
12088;SDS011;6107;49.078;8.578;2024-01-25T00:49:33;20.95;;;3.05;;
12088;SDS011;6107;49.078;8.578;2024-01-25T00:52:00;26.15;;;3.35;;
12088;SDS011;6107;49.078;8.578;2024-01-25T00:54:27;34.08;;;4.38;;
12088;SDS011;6107;49.078;8.578;2024-01-25T00:56:54;26.65;;;4.55;;
12088;SDS011;6107;49.078;8.578;2024-01-25T00:59:20;30.63;;;3.38;;
12088;SDS011;6107;49.078;8.578;2024-01-25T01:01:46;28.45;;;3.90;;
12088;SDS011;6107;49.078;8.578;2024-01-25T01:04:15;29.77;;;3.45;;
12088;SDS011;6107;49.078;8.578;2024-01-25T01:06:41;30.63;;;4.05;;
12088;SDS011;6107;49.078;8.578;2024-01-25T01:09:07;33.25;;;4.63;;
12088;SDS011;6107;49.078;8.578;2024-01-25T01:11:33;29.35;;;3.75;;
12088;SDS011;6107;49.078;8.578;2024-01-25T01:13:59;24.92;;;3.13;;
12088;SDS011;6107;49.078;8.578;2024-01-25T01:16:25;22.15;;;3.15;;
12088;SDS011;6107;49.078;8.578;2024-01-25T01:18:51;30.90;;;4.13;;
12088;SDS011;6107;49.078;8.578;2024-01-25T01:21:16;31.40;;;4.43;;
12088;SDS011;6107;49.078;8.578;2024-01-25T01:23:42;28.58;;;3.50;;
12088;SDS011;6107;49.078;8.578;2024-01-25T01:26:08;27.92;;;3.88;;
12088;SDS011;6107;49.078;8.578;2024-01-25T01:28:33;18.42;;;3.03;;
12088;SDS011;6107;49.078;8.578;2024-01-25T01:30:59;20.20;;;3.05;;
12088;SDS011;6107;49.078;8.578;2024-01-25T01:33:24;31.38;;;3.50;;
12088;SDS011;6107;49.078;8.578;2024-01-25T01:35:50;28.00;;;3.58;;
12088;SDS011;6107;49.078;8.578;2024-01-25T01:38:16;25.25;;;3.88;;
12088;SDS011;6107;49.078;8.578;2024-01-25T01:40:41;24.40;;;4.25;;
12088;SDS011;6107;49.078;8.578;2024-01-25T01:43:17;18.55;;;3.20;;
12088;SDS011;6107;49.078;8.578;2024-01-25T01:45:43;30.85;;;3.28;;
12088;SDS011;6107;49.078;8.578;2024-01-25T01:48:09;17.98;;;2.97;;
12088;SDS011;6107;49.078;8.578;2024-01-25T01:50:34;18.80;;;3.08;;
12088;SDS011;6107;49.078;8.578;2024-01-25T01:53:00;19.63;;;3.22;;
12088;SDS011;6107;49.078;8.578;2024-01-25T01:55:26;27.05;;;4.72;;
12088;SDS011;6107;49.078;8.578;2024-01-25T01:57:52;25.30;;;3.53;;
12088;SDS011;6107;49.078;8.578;2024-01-25T02:00:18;26.02;;;3.67;;
12088;SDS011;6107;49.078;8.578;2024-01-25T02:02:45;18.00;;;3.65;;
12088;SDS011;6107;49.078;8.578;2024-01-25T02:05:11;25.27;;;3.75;;
12088;SDS011;6107;49.078;8.578;2024-01-25T02:07:38;40.13;;;4.47;;
12088;SDS011;6107;49.078;8.578;2024-01-25T02:10:05;18.67;;;3.35;;
12088;SDS011;6107;49.078;8.578;2024-01-25T02:12:35;34.47;;;5.03;;
12088;SDS011;6107;49.078;8.578;2024-01-25T02:15:01;27.52;;;3.67;;
12088;SDS011;6107;49.078;8.578;2024-01-25T02:17:27;23.25;;;3.40;;
12088;SDS011;6107;49.078;8.578;2024-01-25T02:19:53;20.25;;;3.50;;
12088;SDS011;6107;49.078;8.578;2024-01-25T02:22:19;23.13;;;3.15;;
12088;SDS011;6107;49.078;8.578;2024-01-25T02:24:45;24.02;;;5.10;;
12088;SDS011;6107;49.078;8.578;2024-01-25T02:27:10;23.77;;;3.90;;
12088;SDS011;6107;49.078;8.578;2024-01-25T02:29:36;26.65;;;3.85;;
12088;SDS011;6107;49.078;8.578;2024-01-25T02:32:02;38.70;;;4.78;;
12088;SDS011;6107;49.078;8.578;2024-01-25T02:34:28;32.42;;;4.38;;
12088;SDS011;6107;49.078;8.578;2024-01-25T02:36:54;19.55;;;3.38;;
12088;SDS011;6107;49.078;8.578;2024-01-25T02:39:19;30.88;;;3.55;;
12088;SDS011;6107;49.078;8.578;2024-01-25T02:41:45;25.00;;;3.75;;
12088;SDS011;6107;49.078;8.578;2024-01-25T02:44:11;21.83;;;3.13;;
12088;SDS011;6107;49.078;8.578;2024-01-25T02:46:36;35.35;;;4.38;;
12088;SDS011;6107;49.078;8.578;2024-01-25T02:49:03;26.00;;;3.75;;
12088;SDS011;6107;49.078;8.578;2024-01-25T02:51:29;32.40;;;4.50;;
12088;SDS011;6107;49.078;8.578;2024-01-25T02:53:54;29.05;;;4.28;;
12088;SDS011;6107;49.078;8.578;2024-01-25T02:56:20;32.67;;;4.90;;
12088;SDS011;6107;49.078;8.578;2024-01-25T02:58:46;28.42;;;4.28;;
12088;SDS011;6107;49.078;8.578;2024-01-25T03:01:12;25.13;;;4.82;;
12088;SDS011;6107;49.078;8.578;2024-01-25T03:03:37;33.38;;;3.97;;
12088;SDS011;6107;49.078;8.578;2024-01-25T03:06:05;24.98;;;3.40;;
12088;SDS011;6107;49.078;8.578;2024-01-25T03:08:31;22.90;;;3.83;;
12088;SDS011;6107;49.078;8.578;2024-01-25T03:10:57;21.98;;;3.63;;
12088;SDS011;6107;49.078;8.578;2024-01-25T03:13:23;30.25;;;4.20;;
12088;SDS011;6107;49.078;8.578;2024-01-25T03:15:48;26.52;;;4.07;;
12088;SDS011;6107;49.078;8.578;2024-01-25T03:18:14;30.60;;;4.00;;
12088;SDS011;6107;49.078;8.578;2024-01-25T03:20:39;32.47;;;4.75;;
12088;SDS011;6107;49.078;8.578;2024-01-25T03:23:05;27.77;;;4.40;;
12088;SDS011;6107;49.078;8.578;2024-01-25T03:25:31;17.30;;;2.97;;
12088;SDS011;6107;49.078;8.578;2024-01-25T03:27:56;26.63;;;4.35;;
12088;SDS011;6107;49.078;8.578;2024-01-25T03:30:22;20.80;;;4.60;;
12088;SDS011;6107;49.078;8.578;2024-01-25T03:32:48;24.65;;;4.30;;
12088;SDS011;6107;49.078;8.578;2024-01-25T03:35:13;28.95;;;4.28;;
12088;SDS011;6107;49.078;8.578;2024-01-25T03:37:39;21.92;;;4.05;;
12088;SDS011;6107;49.078;8.578;2024-01-25T03:40:05;35.40;;;4.07;;
12088;SDS011;6107;49.078;8.578;2024-01-25T03:42:31;31.17;;;4.32;;
12088;SDS011;6107;49.078;8.578;2024-01-25T03:44:57;25.45;;;3.97;;
12088;SDS011;6107;49.078;8.578;2024-01-25T03:47:22;25.38;;;3.58;;
12088;SDS011;6107;49.078;8.578;2024-01-25T03:49:48;30.55;;;4.18;;
12088;SDS011;6107;49.078;8.578;2024-01-25T03:52:14;39.00;;;3.97;;
12088;SDS011;6107;49.078;8.578;2024-01-25T03:54:39;25.08;;;3.35;;
12088;SDS011;6107;49.078;8.578;2024-01-25T03:57:05;36.67;;;4.32;;
12088;SDS011;6107;49.078;8.578;2024-01-25T03:59:31;26.60;;;3.42;;
12088;SDS011;6107;49.078;8.578;2024-01-25T04:01:56;30.27;;;3.95;;
12088;SDS011;6107;49.078;8.578;2024-01-25T04:04:22;21.63;;;3.67;;
12088;SDS011;6107;49.078;8.578;2024-01-25T04:06:47;35.30;;;4.43;;
12088;SDS011;6107;49.078;8.578;2024-01-25T04:09:13;30.60;;;3.85;;
12088;SDS011;6107;49.078;8.578;2024-01-25T04:11:40;38.30;;;4.47;;
12088;SDS011;6107;49.078;8.578;2024-01-25T04:14:06;36.53;;;3.63;;
12088;SDS011;6107;49.078;8.578;2024-01-25T04:16:32;33.72;;;4.07;;
12088;SDS011;6107;49.078;8.578;2024-01-25T04:19:00;21.63;;;3.30;;
12088;SDS011;6107;49.078;8.578;2024-01-25T04:21:27;34.75;;;4.20;;
12088;SDS011;6107;49.078;8.578;2024-01-25T04:23:53;31.05;;;3.78;;
12088;SDS011;6107;49.078;8.578;2024-01-25T04:26:18;28.25;;;4.10;;
12088;SDS011;6107;49.078;8.578;2024-01-25T04:28:44;20.77;;;3.35;;
12088;SDS011;6107;49.078;8.578;2024-01-25T04:31:10;24.85;;;3.83;;
12088;SDS011;6107;49.078;8.578;2024-01-25T04:33:35;20.08;;;3.58;;
12088;SDS011;6107;49.078;8.578;2024-01-25T04:36:03;33.08;;;3.55;;
12088;SDS011;6107;49.078;8.578;2024-01-25T04:38:29;28.08;;;4.13;;
12088;SDS011;6107;49.078;8.578;2024-01-25T04:40:54;33.05;;;4.47;;
12088;SDS011;6107;49.078;8.578;2024-01-25T04:43:20;33.88;;;4.47;;
12088;SDS011;6107;49.078;8.578;2024-01-25T04:45:45;23.05;;;4.32;;
12088;SDS011;6107;49.078;8.578;2024-01-25T04:48:11;23.75;;;3.30;;
12088;SDS011;6107;49.078;8.578;2024-01-25T04:50:37;27.90;;;4.20;;
12088;SDS011;6107;49.078;8.578;2024-01-25T04:53:04;18.40;;;3.67;;
12088;SDS011;6107;49.078;8.578;2024-01-25T04:55:29;25.10;;;4.28;;
12088;SDS011;6107;49.078;8.578;2024-01-25T04:57:55;24.05;;;3.47;;
12088;SDS011;6107;49.078;8.578;2024-01-25T05:00:21;24.98;;;3.08;;
12088;SDS011;6107;49.078;8.578;2024-01-25T05:02:48;25.05;;;3.63;;
12088;SDS011;6107;49.078;8.578;2024-01-25T05:05:15;27.55;;;3.78;;
12088;SDS011;6107;49.078;8.578;2024-01-25T05:07:40;19.35;;;3.00;;
12088;SDS011;6107;49.078;8.578;2024-01-25T05:10:06;21.70;;;3.45;;
12088;SDS011;6107;49.078;8.578;2024-01-25T05:12:32;22.35;;;3.13;;
12088;SDS011;6107;49.078;8.578;2024-01-25T05:14:58;19.95;;;3.40;;
12088;SDS011;6107;49.078;8.578;2024-01-25T05:17:24;21.02;;;3.70;;
12088;SDS011;6107;49.078;8.578;2024-01-25T05:19:49;20.83;;;3.35;;
12088;SDS011;6107;49.078;8.578;2024-01-25T05:22:15;25.30;;;3.72;;
12088;SDS011;6107;49.078;8.578;2024-01-25T05:24:41;27.50;;;3.25;;
12088;SDS011;6107;49.078;8.578;2024-01-25T05:27:07;17.92;;;3.40;;
12088;SDS011;6107;49.078;8.578;2024-01-25T05:29:33;40.05;;;5.72;;
12088;SDS011;6107;49.078;8.578;2024-01-25T05:31:58;36.92;;;3.92;;
12088;SDS011;6107;49.078;8.578;2024-01-25T05:34:24;26.70;;;3.42;;
12088;SDS011;6107;49.078;8.578;2024-01-25T05:36:50;25.88;;;3.40;;
12088;SDS011;6107;49.078;8.578;2024-01-25T05:39:15;34.72;;;4.00;;
12088;SDS011;6107;49.078;8.578;2024-01-25T05:41:42;26.48;;;4.35;;
12088;SDS011;6107;49.078;8.578;2024-01-25T05:44:10;24.08;;;3.35;;
12088;SDS011;6107;49.078;8.578;2024-01-25T05:46:36;23.85;;;4.53;;
12088;SDS011;6107;49.078;8.578;2024-01-25T05:49:02;17.67;;;3.17;;
12088;SDS011;6107;49.078;8.578;2024-01-25T05:51:27;25.98;;;3.80;;
12088;SDS011;6107;49.078;8.578;2024-01-25T05:53:53;38.45;;;4.75;;
12088;SDS011;6107;49.078;8.578;2024-01-25T05:56:19;27.88;;;4.15;;
12088;SDS011;6107;49.078;8.578;2024-01-25T05:58:44;22.23;;;2.92;;
12088;SDS011;6107;49.078;8.578;2024-01-25T06:01:10;15.02;;;2.85;;
12088;SDS011;6107;49.078;8.578;2024-01-25T06:03:36;23.30;;;3.63;;
12088;SDS011;6107;49.078;8.578;2024-01-25T06:06:01;23.90;;;3.58;;
12088;SDS011;6107;49.078;8.578;2024-01-25T06:08:27;23.58;;;3.13;;
12088;SDS011;6107;49.078;8.578;2024-01-25T06:10:53;29.48;;;3.55;;
12088;SDS011;6107;49.078;8.578;2024-01-25T06:13:19;30.30;;;4.00;;
12088;SDS011;6107;49.078;8.578;2024-01-25T06:15:44;22.50;;;3.33;;
12088;SDS011;6107;49.078;8.578;2024-01-25T06:18:10;28.83;;;4.35;;
12088;SDS011;6107;49.078;8.578;2024-01-25T06:20:35;27.25;;;3.47;;
12088;SDS011;6107;49.078;8.578;2024-01-25T06:23:01;19.38;;;3.17;;
12088;SDS011;6107;49.078;8.578;2024-01-25T06:25:27;19.85;;;3.13;;
12088;SDS011;6107;49.078;8.578;2024-01-25T06:27:56;29.38;;;3.67;;
12088;SDS011;6107;49.078;8.578;2024-01-25T06:30:22;33.20;;;4.00;;
12088;SDS011;6107;49.078;8.578;2024-01-25T06:32:48;18.70;;;3.78;;
12088;SDS011;6107;49.078;8.578;2024-01-25T06:35:14;25.95;;;3.85;;
12088;SDS011;6107;49.078;8.578;2024-01-25T06:37:39;27.50;;;3.58;;
12088;SDS011;6107;49.078;8.578;2024-01-25T06:40:05;25.80;;;4.10;;
12088;SDS011;6107;49.078;8.578;2024-01-25T06:42:32;32.47;;;4.30;;
12088;SDS011;6107;49.078;8.578;2024-01-25T06:44:57;29.67;;;3.55;;
12088;SDS011;6107;49.078;8.578;2024-01-25T06:47:23;24.13;;;3.83;;
12088;SDS011;6107;49.078;8.578;2024-01-25T06:49:49;21.58;;;3.08;;
12088;SDS011;6107;49.078;8.578;2024-01-25T06:52:16;29.83;;;3.53;;
12088;SDS011;6107;49.078;8.578;2024-01-25T06:54:42;24.25;;;3.92;;
12088;SDS011;6107;49.078;8.578;2024-01-25T06:57:08;27.40;;;3.63;;
12088;SDS011;6107;49.078;8.578;2024-01-25T06:59:34;24.42;;;4.43;;
12088;SDS011;6107;49.078;8.578;2024-01-25T07:01:59;23.55;;;4.32;;
12088;SDS011;6107;49.078;8.578;2024-01-25T07:04:27;22.27;;;2.72;;
12088;SDS011;6107;49.078;8.578;2024-01-25T07:06:53;28.13;;;4.32;;
12088;SDS011;6107;49.078;8.578;2024-01-25T07:09:19;33.55;;;3.95;;
12088;SDS011;6107;49.078;8.578;2024-01-25T07:11:45;25.70;;;3.75;;
12088;SDS011;6107;49.078;8.578;2024-01-25T07:14:11;31.63;;;3.75;;
12088;SDS011;6107;49.078;8.578;2024-01-25T07:16:37;29.30;;;3.67;;
12088;SDS011;6107;49.078;8.578;2024-01-25T07:19:02;25.85;;;3.47;;
12088;SDS011;6107;49.078;8.578;2024-01-25T07:21:28;173.98;;;56.03;;
12088;SDS011;6107;49.078;8.578;2024-01-25T07:23:58;161.18;;;50.60;;
12088;SDS011;6107;49.078;8.578;2024-01-25T07:26:28;129.93;;;41.92;;
12088;SDS011;6107;49.078;8.578;2024-01-25T07:28:55;33.67;;;6.30;;
12088;SDS011;6107;49.078;8.578;2024-01-25T07:31:26;23.52;;;4.18;;
12088;SDS011;6107;49.078;8.578;2024-01-25T07:33:53;20.55;;;3.50;;
12088;SDS011;6107;49.078;8.578;2024-01-25T07:36:19;23.10;;;3.05;;
12088;SDS011;6107;49.078;8.578;2024-01-25T07:38:45;33.58;;;3.58;;
12088;SDS011;6107;49.078;8.578;2024-01-25T07:41:12;27.58;;;4.03;;
12088;SDS011;6107;49.078;8.578;2024-01-25T07:43:38;22.15;;;3.22;;
12088;SDS011;6107;49.078;8.578;2024-01-25T07:46:03;30.05;;;3.47;;
12088;SDS011;6107;49.078;8.578;2024-01-25T07:48:29;17.50;;;2.90;;
12088;SDS011;6107;49.078;8.578;2024-01-25T07:50:56;22.85;;;3.38;;
12088;SDS011;6107;49.078;8.578;2024-01-25T07:53:21;16.15;;;3.33;;
12088;SDS011;6107;49.078;8.578;2024-01-25T07:55:47;31.55;;;3.45;;
12088;SDS011;6107;49.078;8.578;2024-01-25T07:58:14;18.95;;;3.35;;
12088;SDS011;6107;49.078;8.578;2024-01-25T08:00:40;18.40;;;3.22;;
12088;SDS011;6107;49.078;8.578;2024-01-25T08:03:07;34.33;;;3.78;;
12088;SDS011;6107;49.078;8.578;2024-01-25T08:05:33;20.90;;;3.95;;
12088;SDS011;6107;49.078;8.578;2024-01-25T08:07:59;22.60;;;2.92;;
12088;SDS011;6107;49.078;8.578;2024-01-25T08:10:24;28.67;;;3.45;;
12088;SDS011;6107;49.078;8.578;2024-01-25T08:12:50;30.52;;;3.47;;
12088;SDS011;6107;49.078;8.578;2024-01-25T08:15:16;30.65;;;4.60;;
12088;SDS011;6107;49.078;8.578;2024-01-25T08:17:44;22.23;;;4.25;;
12088;SDS011;6107;49.078;8.578;2024-01-25T08:20:20;23.05;;;3.15;;
12088;SDS011;6107;49.078;8.578;2024-01-25T08:22:52;27.67;;;3.90;;
12088;SDS011;6107;49.078;8.578;2024-01-25T08:25:18;24.65;;;3.33;;
12088;SDS011;6107;49.078;8.578;2024-01-25T08:27:45;22.20;;;3.50;;
12088;SDS011;6107;49.078;8.578;2024-01-25T08:30:11;28.02;;;4.18;;
12088;SDS011;6107;49.078;8.578;2024-01-25T08:32:37;18.65;;;3.00;;
12088;SDS011;6107;49.078;8.578;2024-01-25T08:35:02;31.65;;;4.38;;
12088;SDS011;6107;49.078;8.578;2024-01-25T08:37:28;24.17;;;3.63;;
12088;SDS011;6107;49.078;8.578;2024-01-25T08:39:54;28.55;;;3.78;;
12088;SDS011;6107;49.078;8.578;2024-01-25T08:42:20;31.73;;;3.60;;
12088;SDS011;6107;49.078;8.578;2024-01-25T08:44:46;21.38;;;3.65;;
12088;SDS011;6107;49.078;8.578;2024-01-25T08:47:16;22.80;;;3.70;;
12088;SDS011;6107;49.078;8.578;2024-01-25T08:49:43;20.75;;;3.10;;
12088;SDS011;6107;49.078;8.578;2024-01-25T08:52:08;24.83;;;4.20;;
12088;SDS011;6107;49.078;8.578;2024-01-25T08:54:34;14.48;;;2.88;;
12088;SDS011;6107;49.078;8.578;2024-01-25T08:57:02;20.92;;;3.88;;
12088;SDS011;6107;49.078;8.578;2024-01-25T08:59:28;21.20;;;3.67;;
12088;SDS011;6107;49.078;8.578;2024-01-25T09:01:56;15.55;;;3.08;;
12088;SDS011;6107;49.078;8.578;2024-01-25T09:04:21;27.10;;;3.72;;
12088;SDS011;6107;49.078;8.578;2024-01-25T09:06:47;13.00;;;2.50;;
12088;SDS011;6107;49.078;8.578;2024-01-25T09:09:12;23.13;;;3.47;;
12088;SDS011;6107;49.078;8.578;2024-01-25T09:11:38;26.90;;;3.13;;
12088;SDS011;6107;49.078;8.578;2024-01-25T09:14:04;26.33;;;3.50;;
12088;SDS011;6107;49.078;8.578;2024-01-25T09:16:29;16.17;;;2.80;;
12088;SDS011;6107;49.078;8.578;2024-01-25T09:18:55;23.15;;;4.15;;
12088;SDS011;6107;49.078;8.578;2024-01-25T09:21:21;20.98;;;3.58;;
12088;SDS011;6107;49.078;8.578;2024-01-25T09:23:46;21.77;;;2.95;;
12088;SDS011;6107;49.078;8.578;2024-01-25T09:26:12;23.75;;;4.15;;
12088;SDS011;6107;49.078;8.578;2024-01-25T09:28:38;21.83;;;3.70;;
12088;SDS011;6107;49.078;8.578;2024-01-25T09:31:04;29.08;;;3.38;;
12088;SDS011;6107;49.078;8.578;2024-01-25T09:33:30;18.38;;;2.53;;
12088;SDS011;6107;49.078;8.578;2024-01-25T09:35:55;29.38;;;3.58;;
12088;SDS011;6107;49.078;8.578;2024-01-25T09:38:21;27.85;;;3.97;;
12088;SDS011;6107;49.078;8.578;2024-01-25T09:40:47;21.45;;;3.92;;
12088;SDS011;6107;49.078;8.578;2024-01-25T09:43:19;23.73;;;3.58;;
12088;SDS011;6107;49.078;8.578;2024-01-25T09:45:47;22.67;;;3.03;;
12088;SDS011;6107;49.078;8.578;2024-01-25T09:48:15;22.10;;;3.13;;
12088;SDS011;6107;49.078;8.578;2024-01-25T09:50:42;17.10;;;2.90;;
12088;SDS011;6107;49.078;8.578;2024-01-25T09:53:11;23.20;;;3.97;;
12088;SDS011;6107;49.078;8.578;2024-01-25T09:55:42;16.17;;;2.97;;
12088;SDS011;6107;49.078;8.578;2024-01-25T09:58:11;18.83;;;3.42;;
12088;SDS011;6107;49.078;8.578;2024-01-25T10:00:38;32.13;;;3.95;;
12088;SDS011;6107;49.078;8.578;2024-01-25T10:03:03;23.95;;;2.78;;
12088;SDS011;6107;49.078;8.578;2024-01-25T10:05:29;27.33;;;2.97;;
12088;SDS011;6107;49.078;8.578;2024-01-25T10:07:56;24.80;;;3.90;;
12088;SDS011;6107;49.078;8.578;2024-01-25T10:10:26;28.90;;;3.78;;
12088;SDS011;6107;49.078;8.578;2024-01-25T10:12:51;30.85;;;4.25;;
12088;SDS011;6107;49.078;8.578;2024-01-25T10:15:20;31.30;;;4.07;;
12088;SDS011;6107;49.078;8.578;2024-01-25T10:17:46;28.67;;;3.65;;
12088;SDS011;6107;49.078;8.578;2024-01-25T10:20:13;24.52;;;3.53;;
12088;SDS011;6107;49.078;8.578;2024-01-25T10:22:39;22.25;;;4.10;;
12088;SDS011;6107;49.078;8.578;2024-01-25T10:25:11;23.80;;;3.67;;
12088;SDS011;6107;49.078;8.578;2024-01-25T10:27:38;32.60;;;4.25;;
12088;SDS011;6107;49.078;8.578;2024-01-25T10:30:05;19.45;;;3.17;;
12088;SDS011;6107;49.078;8.578;2024-01-25T10:32:32;29.80;;;4.40;;
12088;SDS011;6107;49.078;8.578;2024-01-25T10:34:58;29.08;;;3.85;;
12088;SDS011;6107;49.078;8.578;2024-01-25T10:37:26;22.35;;;3.90;;
12088;SDS011;6107;49.078;8.578;2024-01-25T10:39:54;17.27;;;3.38;;
12088;SDS011;6107;49.078;8.578;2024-01-25T10:42:20;23.88;;;3.05;;
12088;SDS011;6107;49.078;8.578;2024-01-25T10:44:46;21.88;;;3.78;;
12088;SDS011;6107;49.078;8.578;2024-01-25T10:47:12;39.35;;;6.10;;
12088;SDS011;6107;49.078;8.578;2024-01-25T10:49:38;33.05;;;4.15;;
12088;SDS011;6107;49.078;8.578;2024-01-25T10:52:05;20.13;;;3.53;;
12088;SDS011;6107;49.078;8.578;2024-01-25T10:54:32;27.05;;;3.15;;
12088;SDS011;6107;49.078;8.578;2024-01-25T10:56:58;24.92;;;3.72;;
12088;SDS011;6107;49.078;8.578;2024-01-25T10:59:24;24.38;;;3.58;;
12088;SDS011;6107;49.078;8.578;2024-01-25T11:01:50;17.98;;;2.95;;
12088;SDS011;6107;49.078;8.578;2024-01-25T11:04:16;19.58;;;3.22;;
12088;SDS011;6107;49.078;8.578;2024-01-25T11:06:44;23.38;;;3.67;;
12088;SDS011;6107;49.078;8.578;2024-01-25T11:09:11;19.15;;;2.95;;
12088;SDS011;6107;49.078;8.578;2024-01-25T11:11:43;24.02;;;3.33;;
12088;SDS011;6107;49.078;8.578;2024-01-25T11:14:11;24.75;;;3.53;;
12088;SDS011;6107;49.078;8.578;2024-01-25T11:16:38;24.83;;;3.35;;
12088;SDS011;6107;49.078;8.578;2024-01-25T11:19:07;18.45;;;2.92;;
12088;SDS011;6107;49.078;8.578;2024-01-25T11:21:42;20.50;;;2.95;;
12088;SDS011;6107;49.078;8.578;2024-01-25T11:24:12;20.25;;;3.40;;
12088;SDS011;6107;49.078;8.578;2024-01-25T11:26:42;30.92;;;3.70;;
12088;SDS011;6107;49.078;8.578;2024-01-25T11:29:09;21.95;;;3.67;;
12088;SDS011;6107;49.078;8.578;2024-01-25T11:31:41;27.90;;;3.58;;
12088;SDS011;6107;49.078;8.578;2024-01-25T11:34:13;35.22;;;4.95;;
12088;SDS011;6107;49.078;8.578;2024-01-25T11:36:42;32.55;;;3.88;;
12088;SDS011;6107;49.078;8.578;2024-01-25T11:39:09;16.55;;;3.78;;
12088;SDS011;6107;49.078;8.578;2024-01-25T11:41:36;27.77;;;3.60;;
12088;SDS011;6107;49.078;8.578;2024-01-25T11:44:02;17.00;;;3.63;;
12088;SDS011;6107;49.078;8.578;2024-01-25T11:46:28;17.38;;;3.20;;
12088;SDS011;6107;49.078;8.578;2024-01-25T11:48:55;23.42;;;3.65;;
12088;SDS011;6107;49.078;8.578;2024-01-25T11:51:22;16.85;;;2.60;;
12088;SDS011;6107;49.078;8.578;2024-01-25T11:53:47;19.35;;;2.47;;
12088;SDS011;6107;49.078;8.578;2024-01-25T11:56:14;19.95;;;3.05;;
12088;SDS011;6107;49.078;8.578;2024-01-25T11:58:43;19.13;;;3.35;;
12088;SDS011;6107;49.078;8.578;2024-01-25T12:01:11;20.00;;;3.65;;
12088;SDS011;6107;49.078;8.578;2024-01-25T12:03:37;14.80;;;2.80;;
12088;SDS011;6107;49.078;8.578;2024-01-25T12:06:03;17.35;;;3.03;;
12088;SDS011;6107;49.078;8.578;2024-01-25T12:08:31;17.15;;;2.75;;
12088;SDS011;6107;49.078;8.578;2024-01-25T12:11:07;21.52;;;3.22;;
12088;SDS011;6107;49.078;8.578;2024-01-25T12:13:34;15.00;;;2.95;;
12088;SDS011;6107;49.078;8.578;2024-01-25T12:16:02;14.43;;;2.65;;
12088;SDS011;6107;49.078;8.578;2024-01-25T12:18:29;21.40;;;3.42;;
12088;SDS011;6107;49.078;8.578;2024-01-25T12:20:57;14.50;;;2.97;;
12088;SDS011;6107;49.078;8.578;2024-01-25T12:23:29;21.00;;;2.28;;
12088;SDS011;6107;49.078;8.578;2024-01-25T12:25:58;18.13;;;2.83;;
12088;SDS011;6107;49.078;8.578;2024-01-25T12:28:29;17.75;;;3.38;;
12088;SDS011;6107;49.078;8.578;2024-01-25T12:30:56;20.85;;;3.17;;
12088;SDS011;6107;49.078;8.578;2024-01-25T12:33:22;23.15;;;3.10;;
12088;SDS011;6107;49.078;8.578;2024-01-25T12:35:48;14.07;;;2.83;;
12088;SDS011;6107;49.078;8.578;2024-01-25T12:38:13;16.25;;;2.88;;
12088;SDS011;6107;49.078;8.578;2024-01-25T12:40:41;13.38;;;2.85;;
12088;SDS011;6107;49.078;8.578;2024-01-25T12:43:08;16.88;;;2.78;;
12088;SDS011;6107;49.078;8.578;2024-01-25T12:45:33;19.65;;;3.03;;
12088;SDS011;6107;49.078;8.578;2024-01-25T12:48:00;18.15;;;2.50;;
12088;SDS011;6107;49.078;8.578;2024-01-25T12:50:27;18.50;;;3.50;;
12088;SDS011;6107;49.078;8.578;2024-01-25T12:52:53;18.98;;;3.40;;
12088;SDS011;6107;49.078;8.578;2024-01-25T12:55:21;16.73;;;2.83;;
12088;SDS011;6107;49.078;8.578;2024-01-25T12:57:47;13.00;;;2.75;;
12088;SDS011;6107;49.078;8.578;2024-01-25T13:00:13;14.43;;;2.67;;
12088;SDS011;6107;49.078;8.578;2024-01-25T13:02:39;13.48;;;3.28;;
12088;SDS011;6107;49.078;8.578;2024-01-25T13:05:06;14.75;;;2.33;;
12088;SDS011;6107;49.078;8.578;2024-01-25T13:07:31;18.77;;;2.78;;
12088;SDS011;6107;49.078;8.578;2024-01-25T13:09:57;26.25;;;3.13;;
12088;SDS011;6107;49.078;8.578;2024-01-25T13:12:22;15.63;;;2.28;;
12088;SDS011;6107;49.078;8.578;2024-01-25T13:14:48;12.85;;;2.72;;
12088;SDS011;6107;49.078;8.578;2024-01-25T13:17:14;17.00;;;4.57;;
12088;SDS011;6107;49.078;8.578;2024-01-25T13:19:39;16.60;;;4.38;;
12088;SDS011;6107;49.078;8.578;2024-01-25T13:22:05;14.95;;;2.65;;
12088;SDS011;6107;49.078;8.578;2024-01-25T13:24:30;21.98;;;3.40;;
12088;SDS011;6107;49.078;8.578;2024-01-25T13:26:56;12.40;;;2.53;;
12088;SDS011;6107;49.078;8.578;2024-01-25T13:29:22;16.52;;;2.88;;
12088;SDS011;6107;49.078;8.578;2024-01-25T13:31:47;16.23;;;2.72;;
12088;SDS011;6107;49.078;8.578;2024-01-25T13:34:13;12.27;;;2.78;;
12088;SDS011;6107;49.078;8.578;2024-01-25T13:36:39;11.80;;;2.47;;
12088;SDS011;6107;49.078;8.578;2024-01-25T13:39:05;13.35;;;2.90;;
12088;SDS011;6107;49.078;8.578;2024-01-25T13:41:30;18.75;;;3.10;;
12088;SDS011;6107;49.078;8.578;2024-01-25T13:43:56;22.80;;;3.35;;
12088;SDS011;6107;49.078;8.578;2024-01-25T13:46:22;19.02;;;3.25;;
12088;SDS011;6107;49.078;8.578;2024-01-25T13:48:47;22.63;;;3.63;;
12088;SDS011;6107;49.078;8.578;2024-01-25T13:51:13;17.98;;;2.35;;
12088;SDS011;6107;49.078;8.578;2024-01-25T13:53:39;29.60;;;3.72;;
12088;SDS011;6107;49.078;8.578;2024-01-25T13:56:04;20.50;;;3.05;;
12088;SDS011;6107;49.078;8.578;2024-01-25T13:58:30;22.92;;;3.38;;
12088;SDS011;6107;49.078;8.578;2024-01-25T14:00:56;17.25;;;3.03;;
12088;SDS011;6107;49.078;8.578;2024-01-25T14:03:22;16.38;;;2.40;;
12088;SDS011;6107;49.078;8.578;2024-01-25T14:05:47;11.90;;;2.45;;
12088;SDS011;6107;49.078;8.578;2024-01-25T14:08:13;18.75;;;2.97;;
12088;SDS011;6107;49.078;8.578;2024-01-25T14:10:38;23.77;;;3.65;;
12088;SDS011;6107;49.078;8.578;2024-01-25T14:13:04;12.80;;;2.75;;
12088;SDS011;6107;49.078;8.578;2024-01-25T14:15:31;17.73;;;2.90;;
12088;SDS011;6107;49.078;8.578;2024-01-25T14:17:56;13.20;;;2.72;;
12088;SDS011;6107;49.078;8.578;2024-01-25T14:20:22;20.90;;;3.13;;
12088;SDS011;6107;49.078;8.578;2024-01-25T14:22:48;17.42;;;3.03;;
12088;SDS011;6107;49.078;8.578;2024-01-25T14:25:14;17.45;;;2.40;;
12088;SDS011;6107;49.078;8.578;2024-01-25T14:27:39;24.25;;;4.18;;
12088;SDS011;6107;49.078;8.578;2024-01-25T14:30:06;17.73;;;2.72;;
12088;SDS011;6107;49.078;8.578;2024-01-25T14:32:33;10.05;;;2.13;;
12088;SDS011;6107;49.078;8.578;2024-01-25T14:34:59;9.40;;;2.38;;
12088;SDS011;6107;49.078;8.578;2024-01-25T14:37:24;13.73;;;2.67;;
12088;SDS011;6107;49.078;8.578;2024-01-25T14:39:50;17.48;;;3.13;;
12088;SDS011;6107;49.078;8.578;2024-01-25T14:42:16;7.85;;;2.00;;